createdAt,value
2022-12-18T00:01:43.365Z,31.85
2022-12-18T00:04:24.495Z,30.08
2022-12-18T00:06:57.876Z,36.35
2022-12-18T00:09:31.095Z,38.50
2022-12-18T00:14:48.335Z,37.85
2022-12-18T00:17:21.163Z,24.65
2022-12-18T00:19:53.700Z,34.05
2022-12-18T00:22:26.537Z,42.78
2022-12-18T00:24:59.060Z,39.88
2022-12-18T00:27:31.918Z,25.50
2022-12-18T00:30:04.883Z,37.70
2022-12-18T00:32:38.179Z,36.08
2022-12-18T00:35:10.732Z,33.63
2022-12-18T00:37:43.560Z,22.58
2022-12-18T00:40:16.082Z,43.55
2022-12-18T00:42:58.249Z,20.58
2022-12-18T00:45:32.549Z,35.10
2022-12-18T00:48:05.665Z,28.58
2022-12-18T00:50:38.270Z,53.28
2022-12-18T00:53:11.213Z,39.03
2022-12-18T00:55:44.452Z,42.25
2022-12-18T00:58:18.137Z,42.95
2022-12-18T01:00:50.731Z,51.03
2022-12-18T01:03:23.607Z,42.65
2022-12-18T01:05:56.124Z,37.38
2022-12-18T01:08:29.033Z,24.65
2022-12-18T01:11:02.098Z,35.72
2022-12-18T01:13:35.127Z,53.78
2022-12-18T01:16:08.485Z,35.20
2022-12-18T01:18:41.404Z,53.22
2022-12-18T01:21:17.074Z,50.40
2022-12-18T01:23:54.316Z,35.13
2022-12-18T01:26:30.452Z,56.65
2022-12-18T01:29:03.461Z,61.80
2022-12-18T01:31:36.060Z,44.13
2022-12-18T01:34:09.868Z,55.85
2022-12-18T01:36:42.371Z,50.13
2022-12-18T01:39:15.999Z,45.65
2022-12-18T01:42:04.239Z,52.08
2022-12-18T01:44:59.045Z,39.90
2022-12-18T01:48:12.897Z,29.60
2022-12-18T01:50:46.225Z,37.03
2022-12-18T01:53:22.893Z,47.20
2022-12-18T01:55:59.632Z,35.20
2022-12-18T01:58:40.566Z,38.33
2022-12-18T02:01:13.922Z,30.10
2022-12-18T02:03:46.811Z,31.90
2022-12-18T02:06:39.978Z,41.90
2022-12-18T02:09:24.603Z,43.70
2022-12-18T02:12:11.795Z,46.92
2022-12-18T02:15:18.668Z,32.03
2022-12-18T02:17:58.602Z,35.50
2022-12-18T02:20:38.254Z,30.52
2022-12-18T02:23:52.899Z,26.75
2022-12-18T02:26:35.320Z,35.35
2022-12-18T02:29:22.730Z,21.58
2022-12-18T02:31:59.536Z,51.85
2022-12-18T02:34:37.786Z,43.42
2022-12-18T02:37:14.953Z,40.95
2022-12-18T02:39:50.273Z,20.73
2022-12-18T02:42:23.373Z,48.97
2022-12-18T02:44:56.254Z,35.92
2022-12-18T02:47:33.645Z,45.80
2022-12-18T02:50:19.934Z,39.63
2022-12-18T02:53:00.900Z,41.38
2022-12-18T02:56:10.788Z,33.00
2022-12-18T02:58:46.196Z,42.33
2022-12-18T03:01:51.136Z,23.38
2022-12-18T03:04:40.453Z,28.40
2022-12-18T03:07:24.453Z,26.10
2022-12-18T03:09:58.892Z,29.70
2022-12-18T03:12:36.675Z,44.42
2022-12-18T03:15:21.976Z,33.92
2022-12-18T03:18:04.248Z,38.92
2022-12-18T03:20:39.928Z,38.67
2022-12-18T03:23:18.739Z,48.00
2022-12-18T03:25:55.426Z,38.55
2022-12-18T03:28:32.746Z,38.20
2022-12-18T03:31:08.587Z,35.70
2022-12-18T03:33:58.503Z,36.35
2022-12-18T03:36:31.016Z,35.50
2022-12-18T03:39:04.246Z,36.75
2022-12-18T03:41:47.101Z,33.78
2022-12-18T03:44:27.377Z,49.17
2022-12-18T03:46:59.856Z,41.72
2022-12-18T03:49:41.648Z,44.70
2022-12-18T03:52:27.452Z,39.70
2022-12-18T03:55:02.483Z,39.28
2022-12-18T03:57:35.848Z,44.95
2022-12-18T04:00:18.951Z,39.75
2022-12-18T04:02:57.087Z,46.25
2022-12-18T04:05:31.119Z,39.58
2022-12-18T04:08:04.131Z,37.75
2022-12-18T04:10:37.795Z,34.67
2022-12-18T04:13:10.722Z,41.60
2022-12-18T04:15:43.624Z,40.63
2022-12-18T04:18:16.158Z,38.17
2022-12-18T04:20:48.949Z,29.20
2022-12-18T04:23:21.441Z,39.63
2022-12-18T04:25:54.325Z,28.17
2022-12-18T04:28:26.902Z,34.13
2022-12-18T04:30:59.868Z,30.88
2022-12-18T04:33:32.734Z,35.05
2022-12-18T04:36:05.993Z,30.13
2022-12-18T04:38:38.521Z,30.92
2022-12-18T04:41:11.337Z,38.15
2022-12-18T04:43:43.877Z,35.55
2022-12-18T04:46:16.744Z,33.20
2022-12-18T04:48:49.479Z,33.35
2022-12-18T04:51:26.452Z,35.50
2022-12-18T04:53:59.442Z,33.75
2022-12-18T04:56:33.078Z,34.45
2022-12-18T04:59:05.914Z,35.47
2022-12-18T05:01:38.835Z,36.58
2022-12-18T05:04:11.448Z,33.90
2022-12-18T05:06:44.347Z,35.97
2022-12-18T05:09:17.011Z,36.72
2022-12-18T05:11:50.129Z,29.83
2022-12-18T05:14:22.629Z,37.70
2022-12-18T05:17:00.543Z,43.25
2022-12-18T05:19:33.528Z,41.35
2022-12-18T05:22:06.324Z,36.33
2022-12-18T05:24:38.814Z,39.53
2022-12-18T05:27:11.621Z,42.85
2022-12-18T05:29:44.148Z,34.85
2022-12-18T05:32:16.928Z,37.80
2022-12-18T05:34:49.403Z,35.72
2022-12-18T05:37:22.464Z,33.97
2022-12-18T05:39:54.972Z,27.40
2022-12-18T05:42:27.775Z,32.15
2022-12-18T05:45:00.311Z,37.08
2022-12-18T05:47:33.163Z,34.70
2022-12-18T05:50:06.366Z,46.22
2022-12-18T05:52:39.131Z,36.88
2022-12-18T05:55:11.655Z,35.95
2022-12-18T05:57:44.423Z,32.10
2022-12-18T06:00:17.436Z,33.85
2022-12-18T06:02:50.425Z,41.65
2022-12-18T06:05:23.092Z,27.20
2022-12-18T06:07:55.873Z,39.90
2022-12-18T06:10:28.527Z,33.75
2022-12-18T06:13:01.855Z,33.83
2022-12-18T06:15:37.026Z,30.75
2022-12-18T06:18:10.096Z,34.25
2022-12-18T06:20:42.653Z,33.10
2022-12-18T06:23:15.410Z,42.50
2022-12-18T06:25:47.895Z,35.88
2022-12-18T06:28:21.219Z,24.17
2022-12-18T06:30:54.082Z,30.33
2022-12-18T06:33:29.117Z,41.22
2022-12-18T06:36:09.411Z,28.65
2022-12-18T06:38:44.756Z,28.20
2022-12-18T06:41:20.576Z,28.42
2022-12-18T06:43:58.125Z,35.33
2022-12-18T06:46:33.236Z,32.65
2022-12-18T06:49:06.280Z,40.20
2022-12-18T06:51:39.162Z,40.78
2022-12-18T06:54:11.954Z,37.67
2022-12-18T06:56:46.892Z,35.83
2022-12-18T06:59:19.958Z,40.38
2022-12-18T07:01:52.668Z,31.83
2022-12-18T07:04:31.638Z,45.30
2022-12-18T07:07:04.156Z,36.35
2022-12-18T07:09:37.287Z,30.70
2022-12-18T07:12:10.839Z,30.38
2022-12-18T07:14:43.715Z,29.73
2022-12-18T07:17:16.262Z,46.55
2022-12-18T07:19:49.023Z,33.90
2022-12-18T07:22:21.556Z,37.20
2022-12-18T07:24:54.455Z,31.13
2022-12-18T07:27:27.043Z,40.03
2022-12-18T07:29:59.827Z,43.30
2022-12-18T07:32:32.363Z,39.60
2022-12-18T07:35:05.518Z,40.40
2022-12-18T07:37:38.083Z,45.10
2022-12-18T07:40:11.675Z,48.47
2022-12-18T07:42:44.217Z,55.08
2022-12-18T07:45:17.148Z,37.97
2022-12-18T07:47:49.634Z,32.17
2022-12-18T07:50:23.024Z,42.80
2022-12-18T07:52:55.571Z,40.50
2022-12-18T07:55:28.503Z,35.90
2022-12-18T07:58:03.687Z,33.08
2022-12-18T08:00:36.822Z,43.20
2022-12-18T08:03:09.340Z,50.05
2022-12-18T08:05:42.243Z,46.47
2022-12-18T08:08:14.807Z,46.65
2022-12-18T08:10:56.910Z,62.42
2022-12-18T08:13:29.587Z,38.20
2022-12-18T08:16:07.448Z,43.30
2022-12-18T08:18:39.926Z,39.47
2022-12-18T08:21:19.390Z,44.22
2022-12-18T08:23:55.832Z,45.88
2022-12-18T08:26:31.085Z,40.97
2022-12-18T08:29:03.762Z,38.60
2022-12-18T08:31:36.964Z,47.13
2022-12-18T08:34:10.025Z,48.35
2022-12-18T08:36:42.838Z,46.88
2022-12-18T08:39:15.321Z,47.65
2022-12-18T08:42:10.285Z,47.22
2022-12-18T08:44:43.137Z,36.50
2022-12-18T08:47:15.978Z,50.70
2022-12-18T08:49:48.530Z,46.10
2022-12-18T08:52:21.323Z,59.65
2022-12-18T08:54:53.798Z,45.55
2022-12-18T08:57:26.632Z,49.58
2022-12-18T08:59:59.331Z,48.17
2022-12-18T09:02:32.418Z,56.13
2022-12-18T09:05:05.415Z,54.55
2022-12-18T09:07:38.462Z,57.47
2022-12-18T09:10:10.953Z,39.65
2022-12-18T09:13:06.831Z,57.38
2022-12-18T09:18:28.008Z,54.22
2022-12-18T09:21:05.539Z,33.22
2022-12-18T09:23:39.510Z,51.60
2022-12-18T09:26:12.185Z,60.45
2022-12-18T09:28:45.442Z,51.47
2022-12-18T09:31:48.220Z,62.17
2022-12-18T09:34:18.866Z,56.22
2022-12-18T09:36:55.128Z,58.17
2022-12-18T09:39:30.997Z,58.90
2022-12-18T09:42:22.389Z,43.38
2022-12-18T09:45:04.867Z,51.28
2022-12-18T09:47:40.223Z,56.47
2022-12-18T09:50:33.076Z,38.20
2022-12-18T09:53:16.835Z,46.38
2022-12-18T09:55:59.364Z,38.85
2022-12-18T09:58:45.413Z,54.95
2022-12-18T10:01:24.188Z,50.47
2022-12-18T10:03:57.491Z,47.92
2022-12-18T10:06:36.722Z,40.70
2022-12-18T10:09:37.345Z,42.33
2022-12-18T10:12:36.684Z,53.25
2022-12-18T10:15:30.522Z,39.38
2022-12-18T10:18:22.020Z,42.17
2022-12-18T10:21:01.163Z,44.63
2022-12-18T10:23:44.935Z,43.00
2022-12-18T10:26:20.476Z,57.20
2022-12-18T10:28:56.361Z,57.33
2022-12-18T10:31:31.241Z,52.53
2022-12-18T10:34:04.110Z,68.40
2022-12-18T10:36:36.804Z,60.03
2022-12-18T10:39:24.779Z,69.57
2022-12-18T10:42:19.753Z,75.93
2022-12-18T10:45:06.747Z,86.60
2022-12-18T10:47:46.069Z,74.68
2022-12-18T10:51:09.601Z,74.55
2022-12-18T10:53:33.999Z,68.47
2022-12-18T10:56:07.816Z,88.28
2022-12-18T10:58:41.514Z,70.53
2022-12-18T11:01:17.500Z,65.18
2022-12-18T11:04:00.450Z,67.22
2022-12-18T11:06:35.143Z,64.50
2022-12-18T11:09:30.095Z,76.22
2022-12-18T11:12:13.829Z,64.47
2022-12-18T11:14:52.880Z,63.22
2022-12-18T11:17:35.867Z,73.72
2022-12-18T11:20:37.546Z,86.75
2022-12-18T11:23:14.727Z,86.97
2022-12-18T11:25:56.897Z,71.90
2022-12-18T11:29:09.171Z,74.15
2022-12-18T11:31:41.752Z,79.93
2022-12-18T11:34:30.261Z,71.88
2022-12-18T11:37:04.836Z,76.13
2022-12-18T11:39:48.176Z,76.40
2022-12-18T11:42:42.585Z,79.32
2022-12-18T11:45:15.418Z,68.10
2022-12-18T11:47:58.995Z,73.80
2022-12-18T11:50:37.950Z,69.30
2022-12-18T11:53:14.007Z,77.60
2022-12-18T11:56:00.018Z,70.85
2022-12-18T11:59:19.974Z,66.47
2022-12-18T12:02:18.419Z,58.03
2022-12-18T12:05:18.850Z,63.72
2022-12-18T12:08:11.897Z,45.55
2022-12-18T12:11:17.317Z,30.17
2022-12-18T12:14:14.220Z,38.03
2022-12-18T12:17:16.969Z,51.45
2022-12-18T12:20:04.711Z,45.65
2022-12-18T12:23:14.458Z,36.67
2022-12-18T12:26:08.743Z,40.30
2022-12-18T12:28:58.520Z,40.00
2022-12-18T12:32:16.663Z,32.50
2022-12-18T12:35:00.833Z,35.75
2022-12-18T12:37:35.402Z,42.45
2022-12-18T12:40:40.867Z,40.97
2022-12-18T12:43:15.927Z,39.55
2022-12-18T12:46:19.931Z,32.30
2022-12-18T12:49:05.630Z,35.92
2022-12-18T12:51:41.850Z,33.35
2022-12-18T12:54:22.387Z,32.45
2022-12-18T13:00:00.133Z,29.02
2022-12-18T13:03:22.177Z,46.33
2022-12-18T13:06:15.584Z,29.45
2022-12-18T13:09:00.361Z,38.45
2022-12-18T13:12:02.013Z,46.97
2022-12-18T13:14:36.313Z,37.95
2022-12-18T13:17:31.029Z,37.58
2022-12-18T13:20:15.654Z,50.15
2022-12-18T13:22:51.928Z,49.47
2022-12-18T13:25:37.193Z,51.33
2022-12-18T13:28:15.492Z,45.45
2022-12-18T13:30:53.750Z,45.58
2022-12-18T13:33:29.806Z,67.38
2022-12-18T13:36:24.368Z,52.05
2022-12-18T13:39:19.719Z,51.78
2022-12-18T13:42:34.787Z,50.22
2022-12-18T13:45:41.489Z,46.95
2022-12-18T13:48:21.704Z,59.75
2022-12-18T13:51:18.770Z,56.38
2022-12-18T13:54:07.142Z,50.72
2022-12-18T13:56:45.574Z,55.30
2022-12-18T13:59:23.883Z,45.47
2022-12-18T14:02:00.648Z,44.72
2022-12-18T14:04:36.736Z,54.88
2022-12-18T14:07:13.588Z,54.22
2022-12-18T14:09:52.286Z,48.58
2022-12-18T14:12:49.637Z,48.58
2022-12-18T14:15:29.652Z,56.75
2022-12-18T14:18:21.769Z,45.63
2022-12-18T14:20:58.420Z,41.65
2022-12-18T14:23:37.937Z,49.95
2022-12-18T14:26:29.010Z,51.45
2022-12-18T14:29:21.638Z,44.72
2022-12-18T14:32:11.781Z,42.08
2022-12-18T14:34:49.313Z,54.35
2022-12-18T14:37:24.728Z,40.60
2022-12-18T14:40:10.889Z,40.58
2022-12-18T14:42:44.124Z,45.78
2022-12-18T14:45:42.682Z,55.10
2022-12-18T14:48:23.018Z,55.00
2022-12-18T14:51:02.764Z,61.80
2022-12-18T14:53:42.638Z,59.90
2022-12-18T14:56:32.929Z,64.20
2022-12-18T14:59:23.805Z,57.42
2022-12-18T15:02:17.045Z,60.75
2022-12-18T15:05:20.740Z,47.75
2022-12-18T15:07:55.680Z,48.42
2022-12-18T15:10:34.318Z,52.80
2022-12-18T15:13:09.968Z,47.30
2022-12-18T15:15:43.432Z,51.45
2022-12-18T15:18:49.054Z,53.97
2022-12-18T15:21:22.121Z,57.78
2022-12-18T15:23:55.324Z,52.88
2022-12-18T15:26:38.073Z,59.05
2022-12-18T15:29:24.028Z,57.67
2022-12-18T15:32:04.945Z,51.08
2022-12-18T15:34:37.741Z,43.33
2022-12-18T15:37:10.388Z,55.20
2022-12-18T15:39:43.469Z,49.55
2022-12-18T15:42:34.808Z,52.90
2022-12-18T15:45:12.634Z,55.90
2022-12-18T15:47:45.384Z,61.63
2022-12-18T15:50:18.149Z,51.08
2022-12-18T15:52:53.404Z,51.70
2022-12-18T15:55:44.975Z,56.13
2022-12-18T15:58:17.478Z,58.15
2022-12-18T16:00:50.357Z,72.15
2022-12-18T16:03:23.110Z,53.60
2022-12-18T16:05:56.577Z,56.95
2022-12-18T16:08:31.282Z,50.20
2022-12-18T16:11:04.207Z,53.08
2022-12-18T16:13:36.783Z,70.10
2022-12-18T16:16:10.052Z,74.07
2022-12-18T16:18:42.646Z,54.15
2022-12-18T16:21:15.505Z,55.30
2022-12-18T16:23:48.019Z,62.78
2022-12-18T16:26:20.858Z,45.10
2022-12-18T16:28:54.202Z,60.13
2022-12-18T16:31:27.394Z,72.93
2022-12-18T16:34:24.980Z,51.25
2022-12-18T16:37:05.841Z,71.85
2022-12-18T16:39:39.897Z,56.08
2022-12-18T16:42:17.340Z,52.35
2022-12-18T16:44:50.917Z,53.95
2022-12-18T16:47:24.420Z,70.05
2022-12-18T16:49:56.926Z,70.88
2022-12-18T16:52:30.427Z,65.47
2022-12-18T16:55:03.592Z,62.05
2022-12-18T16:57:36.471Z,65.30
2022-12-18T17:00:09.629Z,62.78
2022-12-18T17:02:42.883Z,69.43
2022-12-18T17:05:15.634Z,59.35
2022-12-18T17:07:48.437Z,67.13
2022-12-18T17:10:21.020Z,70.82
2022-12-18T17:12:53.832Z,70.10
2022-12-18T17:15:26.384Z,61.10
2022-12-18T17:17:59.246Z,68.13
2022-12-18T17:20:31.826Z,64.72
2022-12-18T17:23:04.618Z,60.25
2022-12-18T17:25:40.459Z,65.28
2022-12-18T17:28:13.307Z,54.80
2022-12-18T17:30:45.858Z,65.25
2022-12-18T17:33:19.046Z,65.63
2022-12-18T17:35:51.788Z,72.60
2022-12-18T17:38:24.640Z,83.90
2022-12-18T17:41:04.672Z,54.67
2022-12-18T17:43:45.778Z,72.38
2022-12-18T17:46:18.716Z,69.13
2022-12-18T17:48:52.602Z,72.60
2022-12-18T17:51:25.952Z,69.85
2022-12-18T17:53:59.032Z,72.57
2022-12-18T17:56:31.911Z,65.63
2022-12-18T17:59:06.977Z,68.90
2022-12-18T18:01:44.487Z,89.45
2022-12-18T18:04:18.189Z,68.85
2022-12-18T18:06:50.880Z,84.03
2022-12-18T18:09:23.793Z,59.53
2022-12-18T18:12:14.914Z,65.28
2022-12-18T18:14:48.038Z,59.58
2022-12-18T18:17:20.770Z,64.38
2022-12-18T18:19:53.796Z,68.82
2022-12-18T18:22:27.089Z,60.25
2022-12-18T18:25:02.310Z,59.28
2022-12-18T18:27:38.513Z,52.58
2022-12-18T18:30:12.180Z,63.03
